sensor_id;sensor_type;location;lat;lon;timestamp;pressure;altitude;pressure_sealevel;temperature;humidity
5574;BME280;2563;52.242;7.956;2023-05-21T00:02:13;101090.16;;;13.49;100.00
5574;BME280;2563;52.242;7.956;2023-05-21T00:04:41;101081.66;;;13.46;100.00
5574;BME280;2563;52.242;7.956;2023-05-21T00:07:06;101085.13;;;13.45;100.00
5574;BME280;2563;52.242;7.956;2023-05-21T00:09:33;101076.53;;;13.43;100.00
5574;BME280;2563;52.242;7.956;2023-05-21T00:11:58;101080.03;;;13.42;100.00
5574;BME280;2563;52.242;7.956;2023-05-21T00:14:23;101084.31;;;13.43;100.00
5574;BME280;2563;52.242;7.956;2023-05-21T00:16:49;101086.16;;;13.37;100.00
5574;BME280;2563;52.242;7.956;2023-05-21T00:19:14;101083.69;;;13.34;100.00
5574;BME280;2563;52.242;7.956;2023-05-21T00:21:40;101082.03;;;13.32;100.00
5574;BME280;2563;52.242;7.956;2023-05-21T00:24:06;101085.53;;;13.29;100.00
5574;BME280;2563;52.242;7.956;2023-05-21T00:26:31;101083.88;;;13.25;100.00
5574;BME280;2563;52.242;7.956;2023-05-21T00:28:57;101085.56;;;13.26;100.00
5574;BME280;2563;52.242;7.956;2023-05-21T00:31:22;101079.56;;;13.27;100.00
5574;BME280;2563;52.242;7.956;2023-05-21T00:33:48;101082.16;;;13.27;100.00
5574;BME280;2563;52.242;7.956;2023-05-21T00:36:13;101074.31;;;13.29;100.00
5574;BME280;2563;52.242;7.956;2023-05-21T00:38:42;101070.03;;;13.29;100.00
5574;BME280;2563;52.242;7.956;2023-05-21T00:41:08;101073.47;;;13.30;100.00
5574;BME280;2563;52.242;7.956;2023-05-21T00:43:35;101064.84;;;13.29;100.00
5574;BME280;2563;52.242;7.956;2023-05-21T00:46:07;101074.38;;;13.27;100.00
5574;BME280;2563;52.242;7.956;2023-05-21T00:48:36;101062.38;;;13.25;100.00
5574;BME280;2563;52.242;7.956;2023-05-21T00:51:02;101058.97;;;13.23;100.00
5574;BME280;2563;52.242;7.956;2023-05-21T00:53:28;101059.06;;;13.19;100.00
5574;BME280;2563;52.242;7.956;2023-05-21T00:55:54;101048.88;;;13.13;100.00
5574;BME280;2563;52.242;7.956;2023-05-21T00:58:20;101053.28;;;13.10;100.00
5574;BME280;2563;52.242;7.956;2023-05-21T01:00:45;101047.38;;;13.05;100.00
5574;BME280;2563;52.242;7.956;2023-05-21T01:03:11;101046.72;;;12.96;100.00
5574;BME280;2563;52.242;7.956;2023-05-21T01:05:38;101055.44;;;12.92;100.00
5574;BME280;2563;52.242;7.956;2023-05-21T01:08:03;101047.88;;;12.86;100.00
5574;BME280;2563;52.242;7.956;2023-05-21T01:10:29;101058.22;;;12.85;100.00
5574;BME280;2563;52.242;7.956;2023-05-21T01:12:56;101056.59;;;12.81;100.00
5574;BME280;2563;52.242;7.956;2023-05-21T01:15:22;101050.78;;;12.74;100.00
5574;BME280;2563;52.242;7.956;2023-05-21T01:17:49;101045.59;;;12.74;100.00
5574;BME280;2563;52.242;7.956;2023-05-21T01:20:15;101037.09;;;12.69;100.00
5574;BME280;2563;52.242;7.956;2023-05-21T01:22:53;101038.84;;;12.68;100.00
5574;BME280;2563;52.242;7.956;2023-05-21T01:25:19;101037.28;;;12.61;100.00
5574;BME280;2563;52.242;7.956;2023-05-21T01:27:45;101027.88;;;12.59;100.00
5574;BME280;2563;52.242;7.956;2023-05-21T01:30:11;101018.28;;;12.64;100.00
5574;BME280;2563;52.242;7.956;2023-05-21T01:43:14;100978.72;;;12.62;100.00
5574;BME280;2563;52.242;7.956;2023-05-21T01:45:41;100963.25;;;12.62;100.00
5574;BME280;2563;52.242;7.956;2023-05-21T01:48:08;100942.66;;;12.59;100.00
5574;BME280;2563;52.242;7.956;2023-05-21T01:50:36;100925.56;;;12.54;100.00
5574;BME280;2563;52.242;7.956;2023-05-21T01:53:03;100918.78;;;12.50;100.00
5574;BME280;2563;52.242;7.956;2023-05-21T01:55:30;100913.78;;;12.44;100.00
5574;BME280;2563;52.242;7.956;2023-05-21T01:57:56;100917.31;;;12.40;100.00
5574;BME280;2563;52.242;7.956;2023-05-21T02:00:24;100913.06;;;12.39;100.00
5574;BME280;2563;52.242;7.956;2023-05-21T02:02:51;100908.00;;;12.34;100.00
5574;BME280;2563;52.242;7.956;2023-05-21T02:05:17;100908.97;;;12.30;100.00
5574;BME280;2563;52.242;7.956;2023-05-21T02:07:43;100915.06;;;12.28;100.00
5574;BME280;2563;52.242;7.956;2023-05-21T02:10:09;100918.63;;;12.24;100.00
5574;BME280;2563;52.242;7.956;2023-05-21T02:12:35;100909.97;;;12.25;100.00
5574;BME280;2563;52.242;7.956;2023-05-21T02:15:01;100902.34;;;12.20;100.00
5574;BME280;2563;52.242;7.956;2023-05-21T02:17:27;100948.88;;;12.19;100.00
5574;BME280;2563;52.242;7.956;2023-05-21T02:19:55;100958.38;;;12.17;100.00
5574;BME280;2563;52.242;7.956;2023-05-21T02:22:21;100965.28;;;12.15;100.00
5574;BME280;2563;52.242;7.956;2023-05-21T02:24:47;100956.00;;;12.07;100.00
5574;BME280;2563;52.242;7.956;2023-05-21T02:27:13;100956.94;;;12.03;100.00
5574;BME280;2563;52.242;7.956;2023-05-21T02:29:41;100945.91;;;11.98;100.00
5574;BME280;2563;52.242;7.956;2023-05-21T02:32:07;100939.06;;;11.97;100.00
5574;BME280;2563;52.242;7.956;2023-05-21T02:34:32;100942.41;;;11.99;100.00
5574;BME280;2563;52.242;7.956;2023-05-21T02:36:59;100920.09;;;11.98;100.00
5574;BME280;2563;52.242;7.956;2023-05-21T02:39:24;100908.94;;;11.98;100.00
5574;BME280;2563;52.242;7.956;2023-05-21T02:41:51;100911.63;;;11.93;100.00
5574;BME280;2563;52.242;7.956;2023-05-21T02:44:16;100906.56;;;11.90;100.00
5574;BME280;2563;52.242;7.956;2023-05-21T02:46:43;100894.56;;;11.86;100.00
5574;BME280;2563;52.242;7.956;2023-05-21T02:49:08;100903.25;;;11.82;100.00
5574;BME280;2563;52.242;7.956;2023-05-21T02:51:34;100889.50;;;11.83;100.00
5574;BME280;2563;52.242;7.956;2023-05-21T02:53:59;100880.06;;;11.80;100.00
5574;BME280;2563;52.242;7.956;2023-05-21T02:56:24;100877.53;;;11.79;100.00
5574;BME280;2563;52.242;7.956;2023-05-21T02:58:50;100869.00;;;11.77;100.00
5574;BME280;2563;52.242;7.956;2023-05-21T03:01:16;100865.53;;;11.78;100.00
5574;BME280;2563;52.242;7.956;2023-05-21T03:03:41;100857.00;;;11.76;100.00
5574;BME280;2563;52.242;7.956;2023-05-21T03:06:06;100855.28;;;11.75;100.00
5574;BME280;2563;52.242;7.956;2023-05-21T03:08:34;100845.78;;;11.77;100.00
5574;BME280;2563;52.242;7.956;2023-05-21T03:11:00;100841.47;;;11.77;100.00
5574;BME280;2563;52.242;7.956;2023-05-21T03:13:25;100830.34;;;11.75;100.00
5574;BME280;2563;52.242;7.956;2023-05-21T03:15:51;100823.47;;;11.76;100.00
5574;BME280;2563;52.242;7.956;2023-05-21T03:18:20;100813.88;;;11.81;100.00
5574;BME280;2563;52.242;7.956;2023-05-21T03:20:46;100812.13;;;11.83;100.00
5574;BME280;2563;52.242;7.956;2023-05-21T03:23:11;100796.63;;;11.83;100.00
5574;BME280;2563;52.242;7.956;2023-05-21T03:25:38;100792.25;;;11.88;100.00
5574;BME280;2563;52.242;7.956;2023-05-21T03:28:03;100774.94;;;11.91;100.00
5574;BME280;2563;52.242;7.956;2023-05-21T03:30:30;100769.88;;;11.88;100.00
5574;BME280;2563;52.242;7.956;2023-05-21T03:32:56;100768.16;;;11.87;100.00
5574;BME280;2563;52.242;7.956;2023-05-21T03:35:21;100763.00;;;11.87;100.00
5574;BME280;2563;52.242;7.956;2023-05-21T03:37:47;100746.69;;;11.87;100.00
5574;BME280;2563;52.242;7.956;2023-05-21T03:40:12;100748.41;;;11.88;100.00
5574;BME280;2563;52.242;7.956;2023-05-21T03:42:38;100747.53;;;11.87;100.00
5574;BME280;2563;52.242;7.956;2023-05-21T03:45:04;100735.50;;;11.86;100.00
5574;BME280;2563;52.242;7.956;2023-05-21T03:47:30;100724.28;;;11.89;100.00
5574;BME280;2563;52.242;7.956;2023-05-21T03:49:55;100722.63;;;11.85;100.00
5574;BME280;2563;52.242;7.956;2023-05-21T03:52:21;100714.94;;;11.83;100.00
5574;BME280;2563;52.242;7.956;2023-05-21T03:54:46;100708.88;;;11.86;100.00
5574;BME280;2563;52.242;7.956;2023-05-21T03:57:11;100697.63;;;11.90;100.00
5574;BME280;2563;52.242;7.956;2023-05-21T03:59:37;100708.72;;;11.92;100.00
5574;BME280;2563;52.242;7.956;2023-05-21T04:02:02;100700.03;;;11.95;100.00
5574;BME280;2563;52.242;7.956;2023-05-21T04:04:28;100689.91;;;11.88;100.00
5574;BME280;2563;52.242;7.956;2023-05-21T04:06:53;100682.91;;;11.92;100.00
5574;BME280;2563;52.242;7.956;2023-05-21T04:09:20;100676.06;;;11.91;100.00
5574;BME280;2563;52.242;7.956;2023-05-21T04:11:45;100669.97;;;11.95;100.00
5574;BME280;2563;52.242;7.956;2023-05-21T04:14:12;100657.81;;;11.99;100.00
5574;BME280;2563;52.242;7.956;2023-05-21T04:16:38;100651.78;;;12.00;100.00
5574;BME280;2563;52.242;7.956;2023-05-21T04:19:04;100646.66;;;11.98;100.00
5574;BME280;2563;52.242;7.956;2023-05-21T04:21:29;100651.78;;;12.00;100.00
5574;BME280;2563;52.242;7.956;2023-05-21T04:23:56;100639.63;;;12.03;100.00
5574;BME280;2563;52.242;7.956;2023-05-21T04:26:22;100633.59;;;12.04;100.00
5574;BME280;2563;52.242;7.956;2023-05-21T04:28:48;100627.53;;;12.05;100.00
5574;BME280;2563;52.242;7.956;2023-05-21T04:31:14;100624.03;;;12.06;100.00
5574;BME280;2563;52.242;7.956;2023-05-21T04:33:39;100620.59;;;12.07;100.00
5574;BME280;2563;52.242;7.956;2023-05-21T04:36:10;100609.28;;;12.11;100.00
5574;BME280;2563;52.242;7.956;2023-05-21T04:38:35;100611.56;;;12.21;100.00
5574;BME280;2563;52.242;7.956;2023-05-21T04:41:01;100598.63;;;12.22;100.00
5574;BME280;2563;52.242;7.956;2023-05-21T04:43:28;100595.00;;;12.28;100.00
5574;BME280;2563;52.242;7.956;2023-05-21T04:45:53;100580.22;;;12.33;100.00
5574;BME280;2563;52.242;7.956;2023-05-21T04:48:20;100577.50;;;12.38;100.00
5574;BME280;2563;52.242;7.956;2023-05-21T04:50:47;100573.06;;;12.43;100.00
5574;BME280;2563;52.242;7.956;2023-05-21T04:53:12;100572.03;;;12.48;100.00
5574;BME280;2563;52.242;7.956;2023-05-21T04:55:37;100561.47;;;12.54;100.00
5574;BME280;2563;52.242;7.956;2023-05-21T04:58:07;100548.22;;;12.65;100.00
5574;BME280;2563;52.242;7.956;2023-05-21T05:00:36;100547.25;;;12.69;100.00
5574;BME280;2563;52.242;7.956;2023-05-21T05:03:02;100542.69;;;12.76;100.00
5574;BME280;2563;52.242;7.956;2023-05-21T05:05:28;100531.22;;;12.85;100.00
5574;BME280;2563;52.242;7.956;2023-05-21T05:07:53;100528.69;;;12.83;100.00
5574;BME280;2563;52.242;7.956;2023-05-21T05:10:18;100527.66;;;12.89;100.00
5574;BME280;2563;52.242;7.956;2023-05-21T05:12:44;100530.91;;;12.94;100.00
5574;BME280;2563;52.242;7.956;2023-05-21T05:15:09;100519.00;;;13.15;100.00
5574;BME280;2563;52.242;7.956;2023-05-21T05:17:35;100513.53;;;13.23;100.00
5574;BME280;2563;52.242;7.956;2023-05-21T05:20:00;100511.63;;;13.29;100.00
5574;BME280;2563;52.242;7.956;2023-05-21T05:22:25;100506.22;;;13.35;100.00
5574;BME280;2563;52.242;7.956;2023-05-21T05:24:51;100506.78;;;13.44;100.00
5574;BME280;2563;52.242;7.956;2023-05-21T05:27:16;100501.38;;;13.50;100.00
5574;BME280;2563;52.242;7.956;2023-05-21T05:29:43;100506.56;;;13.50;100.00
5574;BME280;2563;52.242;7.956;2023-05-21T05:32:09;100498.25;;;13.42;100.00
5574;BME280;2563;52.242;7.956;2023-05-21T05:34:34;100513.13;;;13.58;100.00
5574;BME280;2563;52.242;7.956;2023-05-21T05:36:59;100507.00;;;13.61;100.00
5574;BME280;2563;52.242;7.956;2023-05-21T05:39:26;100511.72;;;13.50;100.00
5574;BME280;2563;52.242;7.956;2023-05-21T05:41:52;100508.00;;;13.57;100.00
5574;BME280;2563;52.242;7.956;2023-05-21T05:44:17;100503.06;;;13.74;100.00
5574;BME280;2563;52.242;7.956;2023-05-21T05:46:42;100507.88;;;13.83;100.00
5574;BME280;2563;52.242;7.956;2023-05-21T05:49:08;100504.88;;;13.72;100.00
5574;BME280;2563;52.242;7.956;2023-05-21T05:51:33;100506.19;;;13.82;100.00
5574;BME280;2563;52.242;7.956;2023-05-21T05:53:58;100513.81;;;13.86;100.00
5574;BME280;2563;52.242;7.956;2023-05-21T05:56:24;100516.59;;;13.81;100.00
5574;BME280;2563;52.242;7.956;2023-05-21T05:58:51;100524.00;;;13.90;100.00
5574;BME280;2563;52.242;7.956;2023-05-21T06:01:17;100516.97;;;13.94;100.00
5574;BME280;2563;52.242;7.956;2023-05-21T06:03:43;100522.94;;;13.96;100.00
5574;BME280;2563;52.242;7.956;2023-05-21T06:06:08;100525.22;;;13.81;100.00
5574;BME280;2563;52.242;7.956;2023-05-21T06:08:33;100532.78;;;13.86;100.00
5574;BME280;2563;52.242;7.956;2023-05-21T06:10:59;100533.56;;;13.88;100.00
5574;BME280;2563;52.242;7.956;2023-05-21T06:13:24;100533.47;;;13.91;100.00
5574;BME280;2563;52.242;7.956;2023-05-21T06:15:51;100549.41;;;14.02;100.00
5574;BME280;2563;52.242;7.956;2023-05-21T06:18:17;100540.19;;;13.95;100.00
5574;BME280;2563;52.242;7.956;2023-05-21T06:20:42;100554.47;;;14.06;100.00
5574;BME280;2563;52.242;7.956;2023-05-21T06:23:07;100551.19;;;14.00;100.00
5574;BME280;2563;52.242;7.956;2023-05-21T06:25:33;100555.41;;;14.03;100.00
5574;BME280;2563;52.242;7.956;2023-05-21T06:27:59;100562.31;;;14.04;100.00
5574;BME280;2563;52.242;7.956;2023-05-21T06:30:24;100567.53;;;14.24;100.00
5574;BME280;2563;52.242;7.956;2023-05-21T06:32:50;100563.88;;;14.30;100.00
5574;BME280;2563;52.242;7.956;2023-05-21T06:35:15;100564.72;;;14.31;100.00
5574;BME280;2563;52.242;7.956;2023-05-21T06:37:40;100557.19;;;14.46;100.00
5574;BME280;2563;52.242;7.956;2023-05-21T06:40:07;100561.94;;;14.35;100.00
5574;BME280;2563;52.242;7.956;2023-05-21T06:42:33;100585.72;;;14.45;100.00
5574;BME280;2563;52.242;7.956;2023-05-21T06:44:58;100578.28;;;14.59;100.00
5574;BME280;2563;52.242;7.956;2023-05-21T06:47:23;100587.72;;;14.60;100.00
5574;BME280;2563;52.242;7.956;2023-05-21T06:49:49;100583.00;;;14.48;100.00
5574;BME280;2563;52.242;7.956;2023-05-21T06:52:14;100589.56;;;14.58;100.00
5574;BME280;2563;52.242;7.956;2023-05-21T06:54:40;100591.00;;;14.65;100.00
5574;BME280;2563;52.242;7.956;2023-05-21T06:57:06;100606.41;;;14.68;100.00
5574;BME280;2563;52.242;7.956;2023-05-21T06:59:31;100608.81;;;14.73;100.00
5574;BME280;2563;52.242;7.956;2023-05-21T07:01:58;100630.00;;;14.83;100.00
5574;BME280;2563;52.242;7.956;2023-05-21T07:04:23;100638.97;;;14.96;100.00
5574;BME280;2563;52.242;7.956;2023-05-21T07:06:48;100631.66;;;15.06;100.00
5574;BME280;2563;52.242;7.956;2023-05-21T07:09:14;100632.81;;;14.99;100.00
5574;BME280;2563;52.242;7.956;2023-05-21T07:11:39;100640.25;;;14.86;100.00
5574;BME280;2563;52.242;7.956;2023-05-21T07:14:07;100639.13;;;14.92;100.00
5574;BME280;2563;52.242;7.956;2023-05-21T07:16:32;100649.66;;;14.88;100.00
5574;BME280;2563;52.242;7.956;2023-05-21T07:18:58;100649.44;;;14.73;100.00
5574;BME280;2563;52.242;7.956;2023-05-21T07:21:23;100673.84;;;15.09;100.00
5574;BME280;2563;52.242;7.956;2023-05-21T07:23:49;100659.50;;;15.01;100.00
5574;BME280;2563;52.242;7.956;2023-05-21T07:26:14;100675.94;;;15.01;100.00
5574;BME280;2563;52.242;7.956;2023-05-21T07:28:40;100677.22;;;15.12;100.00
5574;BME280;2563;52.242;7.956;2023-05-21T07:31:05;100706.28;;;15.20;100.00
5574;BME280;2563;52.242;7.956;2023-05-21T07:33:30;100693.94;;;15.25;100.00
5574;BME280;2563;52.242;7.956;2023-05-21T07:35:56;100708.16;;;15.37;100.00
5574;BME280;2563;52.242;7.956;2023-05-21T07:38:21;100713.16;;;15.41;100.00
5574;BME280;2563;52.242;7.956;2023-05-21T07:40:47;100711.09;;;15.29;100.00
5574;BME280;2563;52.242;7.956;2023-05-21T07:43:12;100711.41;;;15.42;100.00
5574;BME280;2563;52.242;7.956;2023-05-21T07:45:37;100717.00;;;15.53;100.00
5574;BME280;2563;52.242;7.956;2023-05-21T07:48:03;100721.25;;;15.76;100.00
5574;BME280;2563;52.242;7.956;2023-05-21T07:50:28;100722.28;;;15.72;100.00
5574;BME280;2563;52.242;7.956;2023-05-21T07:52:54;100739.94;;;15.84;100.00
5574;BME280;2563;52.242;7.956;2023-05-21T07:55:19;100749.56;;;16.01;100.00
5574;BME280;2563;52.242;7.956;2023-05-21T07:57:45;100760.78;;;16.22;100.00
5574;BME280;2563;52.242;7.956;2023-05-21T08:00:11;100750.13;;;16.28;100.00
5574;BME280;2563;52.242;7.956;2023-05-21T08:02:39;100756.31;;;16.26;100.00
5574;BME280;2563;52.242;7.956;2023-05-21T08:05:05;100764.53;;;16.54;100.00
5574;BME280;2563;52.242;7.956;2023-05-21T08:07:30;100743.03;;;16.51;100.00
5574;BME280;2563;52.242;7.956;2023-05-21T08:09:57;100770.44;;;16.96;100.00
5574;BME280;2563;52.242;7.956;2023-05-21T08:12:23;100765.44;;;17.10;100.00
5574;BME280;2563;52.242;7.956;2023-05-21T08:14:48;100759.72;;;17.02;100.00
5574;BME280;2563;52.242;7.956;2023-05-21T08:17:15;100760.81;;;16.98;100.00
5574;BME280;2563;52.242;7.956;2023-05-21T08:19:40;100790.56;;;17.29;100.00
5574;BME280;2563;52.242;7.956;2023-05-21T08:22:06;100807.25;;;17.59;100.00
5574;BME280;2563;52.242;7.956;2023-05-21T08:24:31;100812.50;;;17.94;100.00
5574;BME280;2563;52.242;7.956;2023-05-21T08:26:56;100789.13;;;17.58;100.00
5574;BME280;2563;52.242;7.956;2023-05-21T08:29:22;100792.84;;;17.35;100.00
5574;BME280;2563;52.242;7.956;2023-05-21T08:31:47;100814.00;;;17.46;100.00
5574;BME280;2563;52.242;7.956;2023-05-21T08:34:13;100831.16;;;17.68;100.00
5574;BME280;2563;52.242;7.956;2023-05-21T08:36:38;100821.91;;;18.14;100.00
5574;BME280;2563;52.242;7.956;2023-05-21T08:39:07;100807.91;;;18.33;100.00
5574;BME280;2563;52.242;7.956;2023-05-21T08:41:34;100815.78;;;18.48;100.00
5574;BME280;2563;52.242;7.956;2023-05-21T08:44:01;100805.59;;;18.44;100.00
5574;BME280;2563;52.242;7.956;2023-05-21T08:46:32;100828.75;;;18.66;100.00
5574;BME280;2563;52.242;7.956;2023-05-21T08:49:01;100819.53;;;18.76;100.00
5574;BME280;2563;52.242;7.956;2023-05-21T08:51:27;100806.09;;;19.16;100.00
5574;BME280;2563;52.242;7.956;2023-05-21T08:53:54;100811.53;;;19.27;100.00
5574;BME280;2563;52.242;7.956;2023-05-21T08:56:20;100799.59;;;19.07;100.00
5574;BME280;2563;52.242;7.956;2023-05-21T08:58:45;100828.00;;;19.43;100.00
5574;BME280;2563;52.242;7.956;2023-05-21T09:01:11;100823.44;;;20.07;100.00
5574;BME280;2563;52.242;7.956;2023-05-21T09:03:38;100811.97;;;20.53;100.00
5574;BME280;2563;52.242;7.956;2023-05-21T09:06:06;100797.13;;;20.53;100.00
5574;BME280;2563;52.242;7.956;2023-05-21T09:08:37;100814.78;;;20.21;100.00
5574;BME280;2563;52.242;7.956;2023-05-21T09:11:07;100820.47;;;20.13;100.00
5574;BME280;2563;52.242;7.956;2023-05-21T09:13:33;100819.91;;;20.51;100.00
5574;BME280;2563;52.242;7.956;2023-05-21T09:15:59;100818.63;;;20.58;100.00
5574;BME280;2563;52.242;7.956;2023-05-21T09:18:24;100811.59;;;20.16;100.00
5574;BME280;2563;52.242;7.956;2023-05-21T09:20:51;100813.06;;;19.91;100.00
5574;BME280;2563;52.242;7.956;2023-05-21T09:23:18;100833.25;;;20.90;100.00
5574;BME280;2563;52.242;7.956;2023-05-21T09:25:45;100813.94;;;20.35;100.00
5574;BME280;2563;52.242;7.956;2023-05-21T09:28:13;100826.78;;;19.81;100.00
5574;BME280;2563;52.242;7.956;2023-05-21T09:30:50;100847.69;;;19.49;100.00
5574;BME280;2563;52.242;7.956;2023-05-21T09:33:24;100832.97;;;19.32;100.00
5574;BME280;2563;52.242;7.956;2023-05-21T09:35:50;100858.28;;;19.77;100.00
5574;BME280;2563;52.242;7.956;2023-05-21T09:38:15;100851.47;;;20.48;100.00
5574;BME280;2563;52.242;7.956;2023-05-21T09:40:44;100833.94;;;20.36;100.00
5574;BME280;2563;52.242;7.956;2023-05-21T09:43:14;100839.16;;;20.50;100.00
5574;BME280;2563;52.242;7.956;2023-05-21T09:45:52;100830.88;;;20.58;100.00
5574;BME280;2563;52.242;7.956;2023-05-21T09:48:38;100828.72;;;20.65;100.00
5574;BME280;2563;52.242;7.956;2023-05-21T09:51:20;100823.06;;;20.85;100.00
5574;BME280;2563;52.242;7.956;2023-05-21T09:53:54;100834.06;;;21.04;100.00
5574;BME280;2563;52.242;7.956;2023-05-21T09:56:24;100813.94;;;21.47;100.00
5574;BME280;2563;52.242;7.956;2023-05-21T09:59:01;100811.78;;;21.66;100.00
5574;BME280;2563;52.242;7.956;2023-05-21T10:01:30;100804.72;;;21.41;100.00
5574;BME280;2563;52.242;7.956;2023-05-21T10:03:57;100824.25;;;21.08;100.00
5574;BME280;2563;52.242;7.956;2023-05-21T10:06:25;100825.94;;;20.95;100.00
5574;BME280;2563;52.242;7.956;2023-05-21T10:08:53;100814.25;;;21.55;100.00
5574;BME280;2563;52.242;7.956;2023-05-21T10:11:21;100811.25;;;20.65;100.00
5574;BME280;2563;52.242;7.956;2023-05-21T10:13:54;100820.66;;;20.53;100.00
5574;BME280;2563;52.242;7.956;2023-05-21T10:16:20;100814.69;;;20.66;100.00
5574;BME280;2563;52.242;7.956;2023-05-21T10:18:46;100817.13;;;20.69;100.00
5574;BME280;2563;52.242;7.956;2023-05-21T10:21:14;100804.31;;;20.50;100.00
5574;BME280;2563;52.242;7.956;2023-05-21T10:23:40;100823.56;;;20.63;100.00
5574;BME280;2563;52.242;7.956;2023-05-21T10:26:07;100814.31;;;20.43;100.00
5574;BME280;2563;52.242;7.956;2023-05-21T10:28:32;100807.19;;;20.88;100.00
5574;BME280;2563;52.242;7.956;2023-05-21T10:30:59;100813.50;;;20.98;100.00
5574;BME280;2563;52.242;7.956;2023-05-21T10:33:25;100807.25;;;21.01;100.00
5574;BME280;2563;52.242;7.956;2023-05-21T10:35:52;100805.13;;;20.93;100.00
5574;BME280;2563;52.242;7.956;2023-05-21T10:38:18;100799.50;;;21.54;100.00
5574;BME280;2563;52.242;7.956;2023-05-21T10:40:46;100784.22;;;21.60;100.00
5574;BME280;2563;52.242;7.956;2023-05-21T10:46:15;100783.38;;;21.33;100.00
5574;BME280;2563;52.242;7.956;2023-05-21T10:49:06;100782.28;;;21.50;100.00
5574;BME280;2563;52.242;7.956;2023-05-21T10:59:44;100768.22;;;21.11;100.00
5574;BME280;2563;52.242;7.956;2023-05-21T11:02:12;100757.25;;;20.64;100.00
5574;BME280;2563;52.242;7.956;2023-05-21T11:04:39;100766.59;;;21.22;100.00
5574;BME280;2563;52.242;7.956;2023-05-21T11:07:07;100772.56;;;21.52;100.00
5574;BME280;2563;52.242;7.956;2023-05-21T11:09:33;100756.03;;;21.24;100.00
5574;BME280;2563;52.242;7.956;2023-05-21T11:11:59;100761.81;;;21.02;100.00
5574;BME280;2563;52.242;7.956;2023-05-21T11:22:23;100728.19;;;22.38;100.00
5574;BME280;2563;52.242;7.956;2023-05-21T11:24:49;100707.97;;;22.64;100.00
5574;BME280;2563;52.242;7.956;2023-05-21T11:29:56;100703.81;;;21.99;100.00
5574;BME280;2563;52.242;7.956;2023-05-21T11:32:21;100727.50;;;22.23;100.00
5574;BME280;2563;52.242;7.956;2023-05-21T11:34:48;100684.31;;;23.01;100.00
5574;BME280;2563;52.242;7.956;2023-05-21T11:39:43;100628.03;;;23.50;100.00
5574;BME280;2563;52.242;7.956;2023-05-21T11:42:09;100646.91;;;23.33;100.00
5574;BME280;2563;52.242;7.956;2023-05-21T11:44:38;100634.16;;;23.85;100.00
5574;BME280;2563;52.242;7.956;2023-05-21T11:47:05;100628.53;;;23.44;100.00
5574;BME280;2563;52.242;7.956;2023-05-21T11:49:31;100661.03;;;22.72;100.00
5574;BME280;2563;52.242;7.956;2023-05-21T11:52:00;100662.59;;;23.10;100.00
5574;BME280;2563;52.242;7.956;2023-05-21T11:54:27;100638.56;;;23.50;100.00
5574;BME280;2563;52.242;7.956;2023-05-21T11:56:53;100650.72;;;23.29;100.00
5574;BME280;2563;52.242;7.956;2023-05-21T11:59:19;100659.75;;;23.25;100.00
5574;BME280;2563;52.242;7.956;2023-05-21T12:01:44;100661.91;;;23.20;100.00
5574;BME280;2563;52.242;7.956;2023-05-21T12:04:10;100666.88;;;23.00;100.00
5574;BME280;2563;52.242;7.956;2023-05-21T12:06:41;100684.13;;;22.91;100.00
5574;BME280;2563;52.242;7.956;2023-05-21T12:09:10;100674.81;;;22.63;100.00
5574;BME280;2563;52.242;7.956;2023-05-21T12:11:40;100685.00;;;23.27;100.00
5574;BME280;2563;52.242;7.956;2023-05-21T12:14:06;100675.53;;;23.25;100.00
5574;BME280;2563;52.242;7.956;2023-05-21T12:16:33;100717.03;;;23.08;100.00
5574;BME280;2563;52.242;7.956;2023-05-21T12:18:59;100726.06;;;24.20;100.00
5574;BME280;2563;52.242;7.956;2023-05-21T12:21:27;100716.50;;;24.30;100.00
5574;BME280;2563;52.242;7.956;2023-05-21T12:23:53;100701.41;;;24.55;100.00
5574;BME280;2563;52.242;7.956;2023-05-21T12:26:18;100706.50;;;25.00;100.00
5574;BME280;2563;52.242;7.956;2023-05-21T12:28:44;100700.16;;;25.02;100.00
5574;BME280;2563;52.242;7.956;2023-05-21T12:31:15;100681.88;;;25.22;100.00
5574;BME280;2563;52.242;7.956;2023-05-21T12:33:44;100684.97;;;25.27;100.00
5574;BME280;2563;52.242;7.956;2023-05-21T12:36:31;100699.78;;;24.75;100.00
5574;BME280;2563;52.242;7.956;2023-05-21T12:38:58;100698.84;;;24.65;100.00
5574;BME280;2563;52.242;7.956;2023-05-21T12:41:25;100703.53;;;24.61;100.00
5574;BME280;2563;52.242;7.956;2023-05-21T12:43:50;100697.50;;;24.70;100.00
5574;BME280;2563;52.242;7.956;2023-05-21T12:46:16;100690.63;;;25.11;100.00
5574;BME280;2563;52.242;7.956;2023-05-21T12:48:52;100689.53;;;25.14;100.00
5574;BME280;2563;52.242;7.956;2023-05-21T12:51:19;100701.13;;;24.69;100.00
5574;BME280;2563;52.242;7.956;2023-05-21T12:53:45;100711.69;;;25.11;100.00
5574;BME280;2563;52.242;7.956;2023-05-21T12:56:12;100704.78;;;25.52;100.00
5574;BME280;2563;52.242;7.956;2023-05-21T12:58:38;100710.31;;;25.28;100.00
5574;BME280;2563;52.242;7.956;2023-05-21T13:01:08;100719.00;;;25.40;100.00
5574;BME280;2563;52.242;7.956;2023-05-21T13:03:34;100685.34;;;25.74;100.00
5574;BME280;2563;52.242;7.956;2023-05-21T13:06:00;100682.97;;;26.02;100.00
5574;BME280;2563;52.242;7.956;2023-05-21T13:08:26;100661.34;;;25.77;100.00
5574;BME280;2563;52.242;7.956;2023-05-21T13:10:52;100649.53;;;25.72;100.00
5574;BME280;2563;52.242;7.956;2023-05-21T13:13:17;100699.50;;;25.52;100.00
5574;BME280;2563;52.242;7.956;2023-05-21T13:15:42;100703.88;;;25.00;100.00
5574;BME280;2563;52.242;7.956;2023-05-21T13:18:08;100748.63;;;24.56;100.00
5574;BME280;2563;52.242;7.956;2023-05-21T13:20:35;100851.91;;;24.71;100.00
5574;BME280;2563;52.242;7.956;2023-05-21T13:23:00;100837.88;;;24.82;100.00
5574;BME280;2563;52.242;7.956;2023-05-21T13:25:26;100882.72;;;25.03;100.00
5574;BME280;2563;52.242;7.956;2023-05-21T13:27:53;100890.88;;;25.00;100.00
5574;BME280;2563;52.242;7.956;2023-05-21T13:30:19;100883.22;;;25.19;100.00
5574;BME280;2563;52.242;7.956;2023-05-21T13:32:46;100876.59;;;25.14;100.00